sensor_id;sensor_type;location;lat;lon;timestamp;P1;durP1;ratioP1;P2;durP2;ratioP2
3801;SDS011;1916;51.798;12.246;2023-02-28T00:01:04;9.20;;;6.47;;
3801;SDS011;1916;51.798;12.246;2023-02-28T00:03:06;9.60;;;7.30;;
3801;SDS011;1916;51.798;12.246;2023-02-28T00:05:09;9.57;;;6.70;;
3801;SDS011;1916;51.798;12.246;2023-02-28T00:07:12;11.33;;;6.53;;
3801;SDS011;1916;51.798;12.246;2023-02-28T00:09:15;6.83;;;6.00;;
3801;SDS011;1916;51.798;12.246;2023-02-28T00:11:17;7.20;;;5.83;;
3801;SDS011;1916;51.798;12.246;2023-02-28T00:13:19;6.00;;;5.37;;
3801;SDS011;1916;51.798;12.246;2023-02-28T00:15:22;7.43;;;6.23;;
3801;SDS011;1916;51.798;12.246;2023-02-28T00:17:24;9.73;;;6.30;;
3801;SDS011;1916;51.798;12.246;2023-02-28T00:19:27;8.27;;;5.70;;
3801;SDS011;1916;51.798;12.246;2023-02-28T00:21:29;7.27;;;6.10;;
3801;SDS011;1916;51.798;12.246;2023-02-28T00:23:31;7.63;;;5.90;;
3801;SDS011;1916;51.798;12.246;2023-02-28T00:25:34;6.73;;;5.67;;
3801;SDS011;1916;51.798;12.246;2023-02-28T00:27:36;7.43;;;5.70;;
3801;SDS011;1916;51.798;12.246;2023-02-28T00:29:39;7.50;;;6.13;;
3801;SDS011;1916;51.798;12.246;2023-02-28T00:31:41;8.77;;;6.93;;
3801;SDS011;1916;51.798;12.246;2023-02-28T00:33:45;9.60;;;6.13;;
3801;SDS011;1916;51.798;12.246;2023-02-28T00:35:48;6.40;;;5.10;;
3801;SDS011;1916;51.798;12.246;2023-02-28T00:37:51;6.07;;;5.47;;
3801;SDS011;1916;51.798;12.246;2023-02-28T00:39:53;6.37;;;5.40;;
3801;SDS011;1916;51.798;12.246;2023-02-28T00:41:56;6.53;;;4.83;;
3801;SDS011;1916;51.798;12.246;2023-02-28T00:43:58;6.23;;;5.10;;
3801;SDS011;1916;51.798;12.246;2023-02-28T00:46:01;6.43;;;4.77;;
3801;SDS011;1916;51.798;12.246;2023-02-28T00:48:04;6.00;;;5.27;;
3801;SDS011;1916;51.798;12.246;2023-02-28T00:50:07;5.93;;;4.90;;
3801;SDS011;1916;51.798;12.246;2023-02-28T00:52:11;6.27;;;4.80;;
3801;SDS011;1916;51.798;12.246;2023-02-28T00:54:13;6.80;;;4.60;;
3801;SDS011;1916;51.798;12.246;2023-02-28T00:56:15;5.80;;;4.53;;
3801;SDS011;1916;51.798;12.246;2023-02-28T00:58:17;7.00;;;4.57;;
3801;SDS011;1916;51.798;12.246;2023-02-28T01:00:20;7.90;;;5.20;;
3801;SDS011;1916;51.798;12.246;2023-02-28T01:02:24;7.23;;;4.27;;
3801;SDS011;1916;51.798;12.246;2023-02-28T01:04:27;5.00;;;3.80;;
3801;SDS011;1916;51.798;12.246;2023-02-28T01:06:29;5.77;;;4.33;;
3801;SDS011;1916;51.798;12.246;2023-02-28T01:08:31;6.40;;;4.47;;
3801;SDS011;1916;51.798;12.246;2023-02-28T01:10:33;4.50;;;3.90;;
3801;SDS011;1916;51.798;12.246;2023-02-28T01:12:38;4.57;;;4.13;;
3801;SDS011;1916;51.798;12.246;2023-02-28T01:14:40;5.40;;;4.17;;
3801;SDS011;1916;51.798;12.246;2023-02-28T01:16:42;6.37;;;4.70;;
3801;SDS011;1916;51.798;12.246;2023-02-28T01:18:45;4.60;;;4.20;;
3801;SDS011;1916;51.798;12.246;2023-02-28T01:20:48;5.30;;;4.10;;
3801;SDS011;1916;51.798;12.246;2023-02-28T01:22:50;5.60;;;4.30;;
3801;SDS011;1916;51.798;12.246;2023-02-28T01:24:53;6.70;;;3.70;;
3801;SDS011;1916;51.798;12.246;2023-02-28T01:26:55;4.77;;;3.70;;
3801;SDS011;1916;51.798;12.246;2023-02-28T01:28:58;4.93;;;4.43;;
3801;SDS011;1916;51.798;12.246;2023-02-28T01:31:00;5.40;;;3.90;;
3801;SDS011;1916;51.798;12.246;2023-02-28T01:33:03;6.93;;;4.50;;
3801;SDS011;1916;51.798;12.246;2023-02-28T01:35:05;6.50;;;4.60;;
3801;SDS011;1916;51.798;12.246;2023-02-28T01:37:07;6.37;;;4.90;;
3801;SDS011;1916;51.798;12.246;2023-02-28T01:39:09;4.60;;;4.10;;
3801;SDS011;1916;51.798;12.246;2023-02-28T01:41:16;4.60;;;4.20;;
3801;SDS011;1916;51.798;12.246;2023-02-28T01:43:21;4.57;;;4.17;;
3801;SDS011;1916;51.798;12.246;2023-02-28T01:45:29;6.97;;;3.80;;
3801;SDS011;1916;51.798;12.246;2023-02-28T01:47:36;5.17;;;4.30;;
3801;SDS011;1916;51.798;12.246;2023-02-28T01:49:43;6.83;;;4.13;;
3801;SDS011;1916;51.798;12.246;2023-02-28T01:51:46;6.73;;;4.87;;
3801;SDS011;1916;51.798;12.246;2023-02-28T01:53:56;5.10;;;4.30;;
3801;SDS011;1916;51.798;12.246;2023-02-28T01:56:01;6.87;;;4.30;;
3801;SDS011;1916;51.798;12.246;2023-02-28T01:58:06;5.07;;;4.07;;
3801;SDS011;1916;51.798;12.246;2023-02-28T02:00:11;6.93;;;4.93;;
3801;SDS011;1916;51.798;12.246;2023-02-28T02:02:22;6.33;;;5.40;;
3801;SDS011;1916;51.798;12.246;2023-02-28T02:04:26;5.73;;;5.10;;
3801;SDS011;1916;51.798;12.246;2023-02-28T02:06:40;6.10;;;5.07;;
3801;SDS011;1916;51.798;12.246;2023-02-28T02:08:45;5.90;;;4.97;;
3801;SDS011;1916;51.798;12.246;2023-02-28T02:10:50;7.10;;;5.20;;
3801;SDS011;1916;51.798;12.246;2023-02-28T02:15:29;8.53;;;5.30;;
3801;SDS011;1916;51.798;12.246;2023-02-28T02:17:35;4.80;;;4.40;;
3801;SDS011;1916;51.798;12.246;2023-02-28T02:19:55;8.80;;;4.97;;
3801;SDS011;1916;51.798;12.246;2023-02-28T02:24:13;6.00;;;5.10;;
3801;SDS011;1916;51.798;12.246;2023-02-28T02:29:08;6.20;;;5.53;;
3801;SDS011;1916;51.798;12.246;2023-02-28T02:36:18;6.50;;;4.97;;
3801;SDS011;1916;51.798;12.246;2023-02-28T02:38:36;12.40;;;5.43;;
3801;SDS011;1916;51.798;12.246;2023-02-28T02:41:13;6.27;;;4.93;;
3801;SDS011;1916;51.798;12.246;2023-02-28T02:45:46;6.53;;;5.07;;
3801;SDS011;1916;51.798;12.246;2023-02-28T02:47:51;5.80;;;5.07;;
3801;SDS011;1916;51.798;12.246;2023-02-28T02:49:55;5.30;;;4.63;;
3801;SDS011;1916;51.798;12.246;2023-02-28T02:52:00;6.50;;;5.40;;
3801;SDS011;1916;51.798;12.246;2023-02-28T02:54:14;5.37;;;4.87;;
3801;SDS011;1916;51.798;12.246;2023-02-28T02:56:19;5.27;;;4.77;;
3801;SDS011;1916;51.798;12.246;2023-02-28T02:58:24;6.43;;;4.93;;
3801;SDS011;1916;51.798;12.246;2023-02-28T03:00:31;5.90;;;4.50;;
3801;SDS011;1916;51.798;12.246;2023-02-28T03:02:37;7.20;;;5.50;;
3801;SDS011;1916;51.798;12.246;2023-02-28T03:04:47;10.13;;;5.20;;
3801;SDS011;1916;51.798;12.246;2023-02-28T03:06:55;6.67;;;5.13;;
3801;SDS011;1916;51.798;12.246;2023-02-28T03:08:58;7.10;;;5.30;;
3801;SDS011;1916;51.798;12.246;2023-02-28T03:11:06;6.70;;;5.57;;
3801;SDS011;1916;51.798;12.246;2023-02-28T03:15:29;5.80;;;4.10;;
3801;SDS011;1916;51.798;12.246;2023-02-28T03:20:25;5.07;;;4.40;;
3801;SDS011;1916;51.798;12.246;2023-02-28T03:25:06;5.33;;;4.10;;
3801;SDS011;1916;51.798;12.246;2023-02-28T03:27:11;4.80;;;4.27;;
3801;SDS011;1916;51.798;12.246;2023-02-28T03:29:37;6.37;;;4.27;;
3801;SDS011;1916;51.798;12.246;2023-02-28T03:31:50;4.50;;;4.10;;
3801;SDS011;1916;51.798;12.246;2023-02-28T03:33:59;6.10;;;3.90;;
3801;SDS011;1916;51.798;12.246;2023-02-28T03:36:07;5.40;;;4.17;;
3801;SDS011;1916;51.798;12.246;2023-02-28T03:38:16;4.67;;;4.20;;
3801;SDS011;1916;51.798;12.246;2023-02-28T03:40:23;4.40;;;3.43;;
3801;SDS011;1916;51.798;12.246;2023-02-28T03:42:28;4.47;;;4.07;;
3801;SDS011;1916;51.798;12.246;2023-02-28T03:44:39;4.93;;;3.73;;
3801;SDS011;1916;51.798;12.246;2023-02-28T03:46:58;6.03;;;4.13;;
3801;SDS011;1916;51.798;12.246;2023-02-28T03:51:16;4.67;;;4.10;;
3801;SDS011;1916;51.798;12.246;2023-02-28T03:55:24;4.70;;;4.17;;
3801;SDS011;1916;51.798;12.246;2023-02-28T03:57:35;5.20;;;4.10;;
3801;SDS011;1916;51.798;12.246;2023-02-28T03:59:42;4.70;;;4.30;;
3801;SDS011;1916;51.798;12.246;2023-02-28T04:01:47;6.10;;;4.70;;
3801;SDS011;1916;51.798;12.246;2023-02-28T04:03:50;5.63;;;4.70;;
3801;SDS011;1916;51.798;12.246;2023-02-28T04:05:54;4.73;;;4.30;;
3801;SDS011;1916;51.798;12.246;2023-02-28T04:08:07;4.90;;;4.40;;
3801;SDS011;1916;51.798;12.246;2023-02-28T04:10:09;6.70;;;4.00;;
3801;SDS011;1916;51.798;12.246;2023-02-28T04:12:13;5.27;;;4.77;;
3801;SDS011;1916;51.798;12.246;2023-02-28T04:14:15;5.50;;;4.37;;
3801;SDS011;1916;51.798;12.246;2023-02-28T04:16:17;5.67;;;4.30;;
3801;SDS011;1916;51.798;12.246;2023-02-28T04:18:35;4.93;;;4.10;;
3801;SDS011;1916;51.798;12.246;2023-02-28T04:20:37;4.90;;;4.43;;
3801;SDS011;1916;51.798;12.246;2023-02-28T04:22:39;5.03;;;4.63;;
3801;SDS011;1916;51.798;12.246;2023-02-28T04:24:42;6.80;;;4.67;;
3801;SDS011;1916;51.798;12.246;2023-02-28T04:26:45;6.20;;;4.50;;
3801;SDS011;1916;51.798;12.246;2023-02-28T04:28:49;5.23;;;4.73;;
3801;SDS011;1916;51.798;12.246;2023-02-28T04:30:55;4.47;;;4.03;;
3801;SDS011;1916;51.798;12.246;2023-02-28T04:33:00;6.27;;;5.13;;
3801;SDS011;1916;51.798;12.246;2023-02-28T04:35:03;4.80;;;4.30;;
3801;SDS011;1916;51.798;12.246;2023-02-28T04:37:05;6.00;;;4.77;;
3801;SDS011;1916;51.798;12.246;2023-02-28T04:39:15;4.43;;;4.03;;
3801;SDS011;1916;51.798;12.246;2023-02-28T04:41:18;5.23;;;4.17;;
3801;SDS011;1916;51.798;12.246;2023-02-28T04:43:21;6.27;;;4.47;;
3801;SDS011;1916;51.798;12.246;2023-02-28T04:45:23;6.00;;;4.80;;
3801;SDS011;1916;51.798;12.246;2023-02-28T04:47:26;7.23;;;4.73;;
3801;SDS011;1916;51.798;12.246;2023-02-28T04:49:28;9.23;;;5.00;;
3801;SDS011;1916;51.798;12.246;2023-02-28T04:51:30;5.40;;;4.40;;
3801;SDS011;1916;51.798;12.246;2023-02-28T04:53:33;5.07;;;4.67;;
3801;SDS011;1916;51.798;12.246;2023-02-28T04:55:35;4.80;;;4.40;;
3801;SDS011;1916;51.798;12.246;2023-02-28T04:57:37;5.23;;;4.73;;
3801;SDS011;1916;51.798;12.246;2023-02-28T04:59:39;5.30;;;4.80;;
3801;SDS011;1916;51.798;12.246;2023-02-28T05:01:45;7.30;;;5.33;;
3801;SDS011;1916;51.798;12.246;2023-02-28T05:03:48;5.43;;;4.67;;
3801;SDS011;1916;51.798;12.246;2023-02-28T05:05:50;5.13;;;4.57;;
3801;SDS011;1916;51.798;12.246;2023-02-28T05:07:52;4.40;;;3.87;;
3801;SDS011;1916;51.798;12.246;2023-02-28T05:09:55;7.00;;;5.67;;
3801;SDS011;1916;51.798;12.246;2023-02-28T05:11:57;5.90;;;4.50;;
3801;SDS011;1916;51.798;12.246;2023-02-28T05:14:00;5.70;;;5.20;;
3801;SDS011;1916;51.798;12.246;2023-02-28T05:16:03;5.43;;;4.60;;
3801;SDS011;1916;51.798;12.246;2023-02-28T05:18:07;5.13;;;4.60;;
3801;SDS011;1916;51.798;12.246;2023-02-28T05:20:10;8.50;;;5.10;;
3801;SDS011;1916;51.798;12.246;2023-02-28T05:22:16;4.90;;;4.40;;
3801;SDS011;1916;51.798;12.246;2023-02-28T05:24:19;5.20;;;4.70;;
3801;SDS011;1916;51.798;12.246;2023-02-28T05:26:24;7.10;;;4.57;;
3801;SDS011;1916;51.798;12.246;2023-02-28T05:28:27;7.90;;;5.20;;
3801;SDS011;1916;51.798;12.246;2023-02-28T05:30:29;6.70;;;6.10;;
3801;SDS011;1916;51.798;12.246;2023-02-28T05:32:33;4.97;;;4.43;;
3801;SDS011;1916;51.798;12.246;2023-02-28T05:34:35;5.00;;;4.60;;
3801;SDS011;1916;51.798;12.246;2023-02-28T05:36:38;5.93;;;5.43;;
3801;SDS011;1916;51.798;12.246;2023-02-28T05:38:41;6.33;;;5.30;;
3801;SDS011;1916;51.798;12.246;2023-02-28T05:40:43;6.80;;;4.60;;
3801;SDS011;1916;51.798;12.246;2023-02-28T05:42:45;7.50;;;4.60;;
3801;SDS011;1916;51.798;12.246;2023-02-28T05:44:48;5.97;;;4.37;;
3801;SDS011;1916;51.798;12.246;2023-02-28T05:46:50;6.93;;;4.90;;
3801;SDS011;1916;51.798;12.246;2023-02-28T05:48:52;5.47;;;4.30;;
3801;SDS011;1916;51.798;12.246;2023-02-28T05:50:56;5.23;;;4.70;;
3801;SDS011;1916;51.798;12.246;2023-02-28T05:52:59;6.60;;;5.10;;
3801;SDS011;1916;51.798;12.246;2023-02-28T05:55:01;6.00;;;5.17;;
3801;SDS011;1916;51.798;12.246;2023-02-28T05:57:03;5.97;;;5.23;;
3801;SDS011;1916;51.798;12.246;2023-02-28T05:59:16;6.27;;;4.70;;
3801;SDS011;1916;51.798;12.246;2023-02-28T06:01:19;7.47;;;5.70;;
3801;SDS011;1916;51.798;12.246;2023-02-28T06:03:38;7.80;;;5.20;;
3801;SDS011;1916;51.798;12.246;2023-02-28T06:05:40;8.37;;;5.43;;
3801;SDS011;1916;51.798;12.246;2023-02-28T06:07:43;5.83;;;4.40;;
3801;SDS011;1916;51.798;12.246;2023-02-28T06:09:45;7.07;;;5.07;;
3801;SDS011;1916;51.798;12.246;2023-02-28T06:11:48;7.43;;;6.07;;
3801;SDS011;1916;51.798;12.246;2023-02-28T06:13:52;12.90;;;5.23;;
3801;SDS011;1916;51.798;12.246;2023-02-28T06:15:56;5.83;;;4.93;;
3801;SDS011;1916;51.798;12.246;2023-02-28T06:17:58;5.47;;;4.97;;
3801;SDS011;1916;51.798;12.246;2023-02-28T06:20:00;5.30;;;4.87;;
3801;SDS011;1916;51.798;12.246;2023-02-28T06:22:02;6.00;;;5.13;;
3801;SDS011;1916;51.798;12.246;2023-02-28T06:24:05;6.47;;;5.77;;
3801;SDS011;1916;51.798;12.246;2023-02-28T06:26:07;6.50;;;5.20;;
3801;SDS011;1916;51.798;12.246;2023-02-28T06:28:09;7.37;;;5.80;;
3801;SDS011;1916;51.798;12.246;2023-02-28T06:30:11;6.93;;;5.43;;
3801;SDS011;1916;51.798;12.246;2023-02-28T06:32:14;5.50;;;4.97;;
3801;SDS011;1916;51.798;12.246;2023-02-28T06:34:16;6.90;;;5.37;;
3801;SDS011;1916;51.798;12.246;2023-02-28T06:36:18;5.87;;;5.27;;
3801;SDS011;1916;51.798;12.246;2023-02-28T06:38:21;5.70;;;5.10;;
3801;SDS011;1916;51.798;12.246;2023-02-28T06:40:23;5.20;;;4.70;;
3801;SDS011;1916;51.798;12.246;2023-02-28T06:42:25;5.47;;;5.00;;
3801;SDS011;1916;51.798;12.246;2023-02-28T06:44:30;6.60;;;4.87;;
3801;SDS011;1916;51.798;12.246;2023-02-28T06:46:38;8.10;;;4.53;;
3801;SDS011;1916;51.798;12.246;2023-02-28T06:48:42;7.70;;;5.60;;
3801;SDS011;1916;51.798;12.246;2023-02-28T06:50:45;6.50;;;4.93;;
3801;SDS011;1916;51.798;12.246;2023-02-28T06:52:48;5.80;;;5.30;;
3801;SDS011;1916;51.798;12.246;2023-02-28T06:54:55;4.90;;;4.37;;
3801;SDS011;1916;51.798;12.246;2023-02-28T06:57:01;5.10;;;4.53;;
3801;SDS011;1916;51.798;12.246;2023-02-28T06:59:03;11.63;;;5.17;;
3801;SDS011;1916;51.798;12.246;2023-02-28T07:01:06;5.60;;;5.00;;
3801;SDS011;1916;51.798;12.246;2023-02-28T07:03:10;8.57;;;4.33;;
3801;SDS011;1916;51.798;12.246;2023-02-28T07:05:13;5.87;;;4.57;;
3801;SDS011;1916;51.798;12.246;2023-02-28T07:07:15;5.33;;;4.83;;
3801;SDS011;1916;51.798;12.246;2023-02-28T07:09:17;9.73;;;5.10;;
3801;SDS011;1916;51.798;12.246;2023-02-28T07:11:21;6.63;;;4.90;;
3801;SDS011;1916;51.798;12.246;2023-02-28T07:13:24;13.50;;;5.50;;
3801;SDS011;1916;51.798;12.246;2023-02-28T07:15:27;10.27;;;5.10;;
3801;SDS011;1916;51.798;12.246;2023-02-28T07:17:29;5.93;;;5.43;;
3801;SDS011;1916;51.798;12.246;2023-02-28T07:19:31;9.40;;;5.20;;
3801;SDS011;1916;51.798;12.246;2023-02-28T07:21:33;6.80;;;5.27;;
3801;SDS011;1916;51.798;12.246;2023-02-28T07:23:36;8.60;;;6.03;;
3801;SDS011;1916;51.798;12.246;2023-02-28T07:25:42;5.83;;;5.10;;
3801;SDS011;1916;51.798;12.246;2023-02-28T07:27:44;8.23;;;5.37;;
3801;SDS011;1916;51.798;12.246;2023-02-28T07:29:46;7.30;;;5.10;;
3801;SDS011;1916;51.798;12.246;2023-02-28T07:31:48;7.60;;;6.60;;
3801;SDS011;1916;51.798;12.246;2023-02-28T07:33:52;6.37;;;5.07;;
3801;SDS011;1916;51.798;12.246;2023-02-28T07:36:00;4.93;;;4.43;;
3801;SDS011;1916;51.798;12.246;2023-02-28T07:38:03;5.40;;;4.60;;
3801;SDS011;1916;51.798;12.246;2023-02-28T07:40:06;5.70;;;4.30;;
3801;SDS011;1916;51.798;12.246;2023-02-28T07:42:10;6.93;;;4.30;;
3801;SDS011;1916;51.798;12.246;2023-02-28T07:44:13;4.23;;;3.83;;
3801;SDS011;1916;51.798;12.246;2023-02-28T07:46:16;4.87;;;4.37;;
3801;SDS011;1916;51.798;12.246;2023-02-28T07:48:18;5.30;;;3.80;;
3801;SDS011;1916;51.798;12.246;2023-02-28T07:50:20;13.23;;;5.30;;
3801;SDS011;1916;51.798;12.246;2023-02-28T07:52:23;5.00;;;4.20;;
3801;SDS011;1916;51.798;12.246;2023-02-28T07:54:25;9.47;;;5.50;;
3801;SDS011;1916;51.798;12.246;2023-02-28T07:56:27;9.40;;;6.43;;
3801;SDS011;1916;51.798;12.246;2023-02-28T07:58:30;13.03;;;6.70;;
3801;SDS011;1916;51.798;12.246;2023-02-28T08:00:35;10.03;;;5.57;;
3801;SDS011;1916;51.798;12.246;2023-02-28T08:02:37;6.80;;;4.77;;
3801;SDS011;1916;51.798;12.246;2023-02-28T08:04:40;5.50;;;4.23;;
3801;SDS011;1916;51.798;12.246;2023-02-28T08:06:42;7.77;;;5.80;;
3801;SDS011;1916;51.798;12.246;2023-02-28T08:08:44;8.13;;;5.90;;
3801;SDS011;1916;51.798;12.246;2023-02-28T08:10:46;7.33;;;5.20;;
3801;SDS011;1916;51.798;12.246;2023-02-28T08:12:48;10.80;;;4.37;;
3801;SDS011;1916;51.798;12.246;2023-02-28T08:14:50;7.90;;;3.83;;
3801;SDS011;1916;51.798;12.246;2023-02-28T08:16:52;4.00;;;3.53;;
3801;SDS011;1916;51.798;12.246;2023-02-28T08:18:55;4.67;;;3.60;;
3801;SDS011;1916;51.798;12.246;2023-02-28T08:20:57;5.27;;;4.00;;
3801;SDS011;1916;51.798;12.246;2023-02-28T08:23:00;4.73;;;4.20;;
3801;SDS011;1916;51.798;12.246;2023-02-28T08:25:03;4.80;;;3.70;;
3801;SDS011;1916;51.798;12.246;2023-02-28T08:27:05;6.70;;;4.57;;
3801;SDS011;1916;51.798;12.246;2023-02-28T08:29:07;5.90;;;5.30;;
3801;SDS011;1916;51.798;12.246;2023-02-28T08:31:09;6.07;;;4.00;;
3801;SDS011;1916;51.798;12.246;2023-02-28T08:33:12;7.13;;;4.80;;
3801;SDS011;1916;51.798;12.246;2023-02-28T08:35:14;6.27;;;4.40;;
3801;SDS011;1916;51.798;12.246;2023-02-28T08:37:16;4.73;;;3.87;;
3801;SDS011;1916;51.798;12.246;2023-02-28T08:39:18;7.30;;;3.90;;
3801;SDS011;1916;51.798;12.246;2023-02-28T08:41:21;6.10;;;3.97;;
3801;SDS011;1916;51.798;12.246;2023-02-28T08:43:23;4.77;;;4.07;;
3801;SDS011;1916;51.798;12.246;2023-02-28T08:45:25;4.43;;;4.03;;
3801;SDS011;1916;51.798;12.246;2023-02-28T08:47:27;4.57;;;4.10;;
3801;SDS011;1916;51.798;12.246;2023-02-28T08:49:29;6.00;;;4.40;;
3801;SDS011;1916;51.798;12.246;2023-02-28T08:51:31;7.50;;;4.00;;
3801;SDS011;1916;51.798;12.246;2023-02-28T08:53:34;5.90;;;4.23;;
3801;SDS011;1916;51.798;12.246;2023-02-28T08:55:39;6.57;;;4.17;;
3801;SDS011;1916;51.798;12.246;2023-02-28T08:57:42;6.50;;;4.47;;
3801;SDS011;1916;51.798;12.246;2023-02-28T08:59:44;5.47;;;3.63;;
3801;SDS011;1916;51.798;12.246;2023-02-28T09:01:46;6.33;;;3.43;;
3801;SDS011;1916;51.798;12.246;2023-02-28T09:03:49;6.53;;;4.33;;
3801;SDS011;1916;51.798;12.246;2023-02-28T09:05:52;10.50;;;5.33;;
3801;SDS011;1916;51.798;12.246;2023-02-28T09:08:01;4.47;;;3.93;;
3801;SDS011;1916;51.798;12.246;2023-02-28T09:10:03;8.90;;;5.30;;
3801;SDS011;1916;51.798;12.246;2023-02-28T09:12:06;8.67;;;5.13;;
3801;SDS011;1916;51.798;12.246;2023-02-28T09:14:08;4.63;;;3.57;;
3801;SDS011;1916;51.798;12.246;2023-02-28T09:16:11;5.70;;;3.30;;
3801;SDS011;1916;51.798;12.246;2023-02-28T09:18:15;6.13;;;4.27;;
3801;SDS011;1916;51.798;12.246;2023-02-28T09:20:17;4.37;;;3.30;;
3801;SDS011;1916;51.798;12.246;2023-02-28T09:22:20;3.60;;;3.23;;
3801;SDS011;1916;51.798;12.246;2023-02-28T09:24:22;5.87;;;4.20;;
3801;SDS011;1916;51.798;12.246;2023-02-28T09:26:25;5.17;;;4.30;;
3801;SDS011;1916;51.798;12.246;2023-02-28T09:28:39;6.10;;;4.37;;
3801;SDS011;1916;51.798;12.246;2023-02-28T09:30:41;6.03;;;4.23;;
3801;SDS011;1916;51.798;12.246;2023-02-28T09:32:44;4.07;;;3.60;;
3801;SDS011;1916;51.798;12.246;2023-02-28T09:34:53;4.73;;;3.40;;
3801;SDS011;1916;51.798;12.246;2023-02-28T09:36:55;4.43;;;3.70;;
3801;SDS011;1916;51.798;12.246;2023-02-28T09:38:58;7.70;;;4.77;;
3801;SDS011;1916;51.798;12.246;2023-02-28T09:41:04;9.30;;;5.60;;
3801;SDS011;1916;51.798;12.246;2023-02-28T09:43:20;6.20;;;4.53;;
3801;SDS011;1916;51.798;12.246;2023-02-28T09:45:27;6.33;;;4.70;;
3801;SDS011;1916;51.798;12.246;2023-02-28T09:47:39;5.70;;;3.90;;
3801;SDS011;1916;51.798;12.246;2023-02-28T09:49:45;6.67;;;4.50;;
3801;SDS011;1916;51.798;12.246;2023-02-28T09:51:59;7.30;;;4.80;;
3801;SDS011;1916;51.798;12.246;2023-02-28T09:54:04;5.53;;;4.63;;
3801;SDS011;1916;51.798;12.246;2023-02-28T09:56:20;7.23;;;4.90;;
3801;SDS011;1916;51.798;12.246;2023-02-28T09:58:41;6.80;;;4.80;;
3801;SDS011;1916;51.798;12.246;2023-02-28T10:01:03;8.23;;;5.80;;
3801;SDS011;1916;51.798;12.246;2023-02-28T10:05:29;7.27;;;5.00;;
3801;SDS011;1916;51.798;12.246;2023-02-28T10:07:54;5.80;;;3.93;;
3801;SDS011;1916;51.798;12.246;2023-02-28T10:10:01;4.80;;;4.10;;
3801;SDS011;1916;51.798;12.246;2023-02-28T10:12:06;13.53;;;5.23;;
3801;SDS011;1916;51.798;12.246;2023-02-28T10:14:24;4.47;;;3.83;;
3801;SDS011;1916;51.798;12.246;2023-02-28T10:16:32;3.63;;;3.30;;
3801;SDS011;1916;51.798;12.246;2023-02-28T10:19:01;5.07;;;3.53;;
3801;SDS011;1916;51.798;12.246;2023-02-28T10:21:10;3.90;;;3.50;;
3801;SDS011;1916;51.798;12.246;2023-02-28T10:23:21;3.97;;;3.57;;
3801;SDS011;1916;51.798;12.246;2023-02-28T10:25:30;5.20;;;3.90;;
3801;SDS011;1916;51.798;12.246;2023-02-28T10:27:32;4.37;;;3.90;;
3801;SDS011;1916;51.798;12.246;2023-02-28T10:29:34;4.60;;;4.03;;
3801;SDS011;1916;51.798;12.246;2023-02-28T10:31:37;4.70;;;3.90;;
3801;SDS011;1916;51.798;12.246;2023-02-28T10:33:40;4.57;;;3.60;;
3801;SDS011;1916;51.798;12.246;2023-02-28T10:35:42;4.73;;;3.87;;
3801;SDS011;1916;51.798;12.246;2023-02-28T10:37:48;4.80;;;3.87;;
3801;SDS011;1916;51.798;12.246;2023-02-28T10:39:51;6.30;;;4.80;;
3801;SDS011;1916;51.798;12.246;2023-02-28T10:41:53;5.77;;;3.97;;
3801;SDS011;1916;51.798;12.246;2023-02-28T10:46:22;4.80;;;4.33;;
3801;SDS011;1916;51.798;12.246;2023-02-28T10:48:42;6.70;;;4.10;;
3801;SDS011;1916;51.798;12.246;2023-02-28T10:52:51;7.37;;;4.17;;
3801;SDS011;1916;51.798;12.246;2023-02-28T10:54:57;4.90;;;3.90;;
3801;SDS011;1916;51.798;12.246;2023-02-28T10:57:23;5.17;;;4.00;;
3801;SDS011;1916;51.798;12.246;2023-02-28T10:59:29;7.27;;;4.43;;
3801;SDS011;1916;51.798;12.246;2023-02-28T11:01:40;4.47;;;4.10;;
3801;SDS011;1916;51.798;12.246;2023-02-28T11:03:44;5.40;;;4.63;;
3801;SDS011;1916;51.798;12.246;2023-02-28T11:05:46;5.30;;;4.80;;
3801;SDS011;1916;51.798;12.246;2023-02-28T11:07:56;4.50;;;4.10;;
3801;SDS011;1916;51.798;12.246;2023-02-28T11:10:02;6.30;;;5.17;;
3801;SDS011;1916;51.798;12.246;2023-02-28T11:12:07;5.30;;;4.80;;
3801;SDS011;1916;51.798;12.246;2023-02-28T11:14:17;7.37;;;4.60;;
3801;SDS011;1916;51.798;12.246;2023-02-28T11:16:34;7.90;;;5.20;;
3801;SDS011;1916;51.798;12.246;2023-02-28T11:20:48;6.50;;;5.03;;
3801;SDS011;1916;51.798;12.246;2023-02-28T11:22:52;4.93;;;4.43;;
3801;SDS011;1916;51.798;12.246;2023-02-28T11:24:57;6.77;;;4.70;;
3801;SDS011;1916;51.798;12.246;2023-02-28T11:27:01;5.50;;;4.57;;
3801;SDS011;1916;51.798;12.246;2023-02-28T11:29:21;7.40;;;5.10;;
3801;SDS011;1916;51.798;12.246;2023-02-28T11:31:24;6.73;;;4.60;;
3801;SDS011;1916;51.798;12.246;2023-02-28T11:33:28;6.77;;;5.10;;
3801;SDS011;1916;51.798;12.246;2023-02-28T11:35:33;6.10;;;5.50;;
3801;SDS011;1916;51.798;12.246;2023-02-28T11:37:38;8.33;;;4.87;;
3801;SDS011;1916;51.798;12.246;2023-02-28T11:39:42;7.50;;;5.57;;
3801;SDS011;1916;51.798;12.246;2023-02-28T11:46:14;6.03;;;4.73;;
3801;SDS011;1916;51.798;12.246;2023-02-28T11:50:47;8.13;;;5.10;;
3801;SDS011;1916;51.798;12.246;2023-02-28T11:55:14;7.07;;;6.07;;
3801;SDS011;1916;51.798;12.246;2023-02-28T12:02:17;8.83;;;4.47;;
3801;SDS011;1916;51.798;12.246;2023-02-28T12:04:25;5.83;;;4.83;;
3801;SDS011;1916;51.798;12.246;2023-02-28T12:10:00;6.10;;;5.30;;
3801;SDS011;1916;51.798;12.246;2023-02-28T12:11:39;6.37;;;5.40;;
3801;SDS011;1916;51.798;12.246;2023-02-28T12:23:02;8.40;;;5.43;;
3801;SDS011;1916;51.798;12.246;2023-02-28T12:25:35;5.33;;;4.83;;
3801;SDS011;1916;51.798;12.246;2023-02-28T12:27:41;10.53;;;5.47;;
3801;SDS011;1916;51.798;12.246;2023-02-28T12:29:47;7.77;;;5.87;;
3801;SDS011;1916;51.798;12.246;2023-02-28T12:31:59;5.83;;;5.00;;
3801;SDS011;1916;51.798;12.246;2023-02-28T12:34:08;5.50;;;4.87;;
3801;SDS011;1916;51.798;12.246;2023-02-28T12:36:14;8.33;;;5.37;;
3801;SDS011;1916;51.798;12.246;2023-02-28T12:38:36;10.90;;;5.40;;
3801;SDS011;1916;51.798;12.246;2023-02-28T12:40:45;7.40;;;5.80;;
3801;SDS011;1916;51.798;12.246;2023-02-28T12:47:25;6.13;;;5.57;;
3801;SDS011;1916;51.798;12.246;2023-02-28T12:49:34;6.60;;;5.03;;
3801;SDS011;1916;51.798;12.246;2023-02-28T12:51:48;5.20;;;4.40;;
3801;SDS011;1916;51.798;12.246;2023-02-28T12:54:04;7.23;;;5.43;;
3801;SDS011;1916;51.798;12.246;2023-02-28T12:56:30;7.53;;;5.43;;
3801;SDS011;1916;51.798;12.246;2023-02-28T12:58:56;7.13;;;5.57;;
3801;SDS011;1916;51.798;12.246;2023-02-28T13:01:07;6.40;;;5.50;;
3801;SDS011;1916;51.798;12.246;2023-02-28T13:05:44;7.27;;;5.40;;
3801;SDS011;1916;51.798;12.246;2023-02-28T13:09:57;6.97;;;5.60;;
3801;SDS011;1916;51.798;12.246;2023-02-28T13:12:01;6.80;;;6.10;;
3801;SDS011;1916;51.798;12.246;2023-02-28T13:16:27;10.80;;;6.30;;
3801;SDS011;1916;51.798;12.246;2023-02-28T13:18:33;8.63;;;6.00;;
3801;SDS011;1916;51.798;12.246;2023-02-28T13:20:48;8.10;;;5.87;;
3801;SDS011;1916;51.798;12.246;2023-02-28T13:22:53;7.67;;;5.63;;
3801;SDS011;1916;51.798;12.246;2023-02-28T13:24:56;6.10;;;5.20;;
3801;SDS011;1916;51.798;12.246;2023-02-28T13:31:20;5.60;;;5.10;;
3801;SDS011;1916;51.798;12.246;2023-02-28T13:33:32;8.93;;;6.17;;
3801;SDS011;1916;51.798;12.246;2023-02-28T13:35:37;7.80;;;5.70;;
3801;SDS011;1916;51.798;12.246;2023-02-28T13:37:44;7.20;;;6.00;;
3801;SDS011;1916;51.798;12.246;2023-02-28T13:39:52;10.20;;;6.20;;
3801;SDS011;1916;51.798;12.246;2023-02-28T13:41:57;6.30;;;5.50;;
3801;SDS011;1916;51.798;12.246;2023-02-28T13:47:19;6.20;;;5.60;;
3801;SDS011;1916;51.798;12.246;2023-02-28T13:53:54;7.07;;;6.13;;
3801;SDS011;1916;51.798;12.246;2023-02-28T14:05:34;9.27;;;5.80;;
3801;SDS011;1916;51.798;12.246;2023-02-28T14:07:42;7.47;;;6.10;;
3801;SDS011;1916;51.798;12.246;2023-02-28T14:09:54;7.13;;;5.57;;
3801;SDS011;1916;51.798;12.246;2023-02-28T14:16:47;6.93;;;5.00;;
3801;SDS011;1916;51.798;12.246;2023-02-28T14:19:01;7.70;;;5.47;;
3801;SDS011;1916;51.798;12.246;2023-02-28T14:25:37;6.43;;;5.30;;
3801;SDS011;1916;51.798;12.246;2023-02-28T14:32:02;5.67;;;4.93;;
3801;SDS011;1916;51.798;12.246;2023-02-28T14:34:13;7.90;;;5.23;;
3801;SDS011;1916;51.798;12.246;2023-02-28T14:36:25;7.60;;;5.43;;